Time;durP1;ratioP1;P1;durP2;ratioP2;P2;SDS_P1;SDS_P2;PMS_P1;PMS_P2;Temp;Humidity;BMP_temperature;BMP_pressure;BME280_temperature;BME280_humidity;BME280_pressure;Samples;Min_cycle;Max_cycle;Signal;HPM_P1;HPM_P2
2022/01/13 00:01:47;;;;;;;12.93;10.38;;;18.60;98.30;;;;;;4230767;28;20209;-76
2022/01/13 00:03:49;;;;;;;13.48;10.02;;;18.50;98.70;;;;;;4231014;28;20217;-76
2022/01/13 00:05:52;;;;;;;11.82;9.50;;;18.60;98.40;;;;;;4226646;28;20218;-76
2022/01/13 00:07:57;;;;;;;13.05;10.00;;;18.50;98.30;;;;;;4230846;28;20287;-76
2022/01/13 00:09:59;;;;;;;13.00;9.65;;;18.50;98.30;;;;;;4231098;28;20206;-76
2022/01/13 00:12:01;;;;;;;12.68;9.45;;;18.50;98.30;;;;;;4231286;28;20548;-77
2022/01/13 00:14:24;;;;;;;11.52;9.25;;;18.50;98.40;;;;;;4230184;28;20267;-76
2022/01/13 00:16:39;;;;;;;13.55;9.60;;;18.50;98.40;;;;;;4230722;28;20230;-77
2022/01/13 00:18:49;;;;;;;12.63;9.20;;;18.50;98.30;;;;;;4230725;28;20597;-77
2022/01/13 00:21:14;;;;;;;12.38;9.75;;;18.50;98.30;;;;;;4230727;28;20270;-76
2022/01/13 00:25:37;;;;;;;12.50;10.18;;;18.50;98.40;;;;;;4230693;28;20186;-76
2022/01/13 00:27:44;;;;;;;12.85;10.02;;;18.50;98.40;;;;;;4232117;27;20210;-76
2022/01/13 00:29:48;;;;;;;13.15;9.35;;;18.40;98.20;;;;;;4230268;28;20255;-74
2022/01/13 00:31:50;;;;;;;11.82;9.63;;;18.40;98.30;;;;;;4222500;28;20283;-77
2022/01/13 00:33:54;;;;;;;11.00;9.10;;;18.40;98.30;;;;;;4230434;28;20217;-77
2022/01/13 00:36:00;;;;;;;14.00;10.32;;;18.40;98.20;;;;;;4230341;28;20290;-76
2022/01/13 00:38:02;;;;;;;13.85;9.90;;;18.40;98.30;;;;;;4229630;28;20221;-76
2022/01/13 00:40:06;;;;;;;11.98;9.43;;;18.40;98.20;;;;;;4232219;27;20213;-76
2022/01/13 00:42:09;;;;;;;12.23;9.13;;;18.40;98.20;;;;;;4239118;27;20261;-76
2022/01/13 00:44:11;;;;;;;12.52;10.05;;;18.40;98.30;;;;;;4245959;27;20590;-76
2022/01/13 00:46:21;;;;;;;11.50;9.57;;;18.40;98.20;;;;;;4239527;27;20201;-76
2022/01/13 00:48:23;;;;;;;14.43;10.40;;;18.40;98.20;;;;;;4229358;27;20251;-76
2022/01/13 00:50:25;;;;;;;14.90;9.88;;;18.40;98.20;;;;;;4240911;27;20286;-76
2022/01/13 00:52:28;;;;;;;12.38;9.38;;;18.30;98.20;;;;;;4233238;27;20270;-76
2022/01/13 00:54:32;;;;;;;12.73;9.20;;;18.40;98.20;;;;;;4227354;28;20271;-76
2022/01/13 00:56:35;;;;;;;12.27;9.35;;;18.30;98.20;;;;;;4228695;27;20233;-76
2022/01/13 00:58:38;;;;;;;12.55;9.13;;;18.30;98.10;;;;;;4230008;27;20266;-77
2022/01/13 01:00:41;;;;;;;13.13;9.73;;;18.30;98.10;;;;;;4243906;27;20258;-76
2022/01/13 01:02:45;;;;;;;14.77;9.95;;;18.30;98.20;;;;;;4228643;28;20218;-76
2022/01/13 01:04:47;;;;;;;12.18;9.82;;;18.30;98.10;;;;;;4228788;28;20214;-76
2022/01/13 01:06:52;;;;;;;14.13;9.95;;;18.30;98.30;;;;;;4228726;28;20254;-78
2022/01/13 01:08:55;;;;;;;13.93;10.73;;;18.30;98.10;;;;;;4228757;28;20214;-76
2022/01/13 01:11:00;;;;;;;15.45;10.68;;;18.30;98.10;;;;;;4231280;27;20259;-77
2022/01/13 01:13:10;;;;;;;12.63;9.73;;;18.30;98.00;;;;;;4222469;28;20683;-76
2022/01/13 01:15:13;;;;;;;11.10;8.70;;;18.30;98.10;;;;;;4228363;28;20217;-76
2022/01/13 01:17:16;;;;;;;15.65;11.23;;;18.30;98.10;;;;;;4228125;28;20229;-78
2022/01/13 01:19:26;;;;;;;13.75;9.45;;;18.30;98.10;;;;;;4228490;28;20839;-76
2022/01/13 01:26:24;;;;;;;12.68;10.15;;;18.20;98.20;;;;;;4210365;28;20251;-76
2022/01/13 01:28:37;;;;;;;13.23;10.43;;;18.20;98.20;;;;;;4228246;28;20259;-76
2022/01/13 01:30:42;;;;;;;13.48;9.82;;;18.20;98.10;;;;;;4225903;28;20243;-76
2022/01/13 01:32:44;;;;;;;12.73;10.27;;;18.20;98.20;;;;;;4229960;28;20266;-78
2022/01/13 01:34:55;;;;;;;13.18;9.63;;;18.20;98.20;;;;;;4242166;27;20217;-78
2022/01/13 01:36:58;;;;;;;14.93;10.55;;;18.20;98.50;;;;;;4231844;28;20689;-78
2022/01/13 01:39:00;;;;;;;12.68;9.90;;;18.10;98.00;;;;;;4245270;28;20201;-78
2022/01/13 01:41:03;;;;;;;12.25;9.45;;;18.20;98.20;;;;;;4231375;28;20217;-78
2022/01/13 01:43:05;;;;;;;11.07;9.50;;;18.10;98.10;;;;;;4228577;28;20255;-78
2022/01/13 01:45:09;;;;;;;12.45;10.00;;;18.20;98.20;;;;;;4232935;28;20273;-78
2022/01/13 01:47:13;;;;;;;12.57;10.10;;;18.10;98.00;;;;;;4231811;28;20203;-77
2022/01/13 01:49:20;;;;;;;14.07;10.05;;;18.10;98.00;;;;;;4229810;28;20213;-77
2022/01/13 01:51:24;;;;;;;12.82;9.85;;;18.10;98.10;;;;;;4244041;28;20255;-77
2022/01/13 01:53:27;;;;;;;13.10;10.07;;;18.10;98.00;;;;;;4244758;28;20261;-77
2022/01/13 01:55:29;;;;;;;11.57;9.68;;;18.10;98.10;;;;;;4240321;28;20222;-77
2022/01/13 01:57:31;;;;;;;13.27;9.32;;;18.10;98.10;;;;;;4232097;28;20233;-77
2022/01/13 01:59:38;;;;;;;12.43;9.93;;;18.10;98.00;;;;;;4245846;27;20891;-77
2022/01/13 02:01:40;;;;;;;14.80;9.60;;;18.10;98.10;;;;;;4248115;27;20217;-78
2022/01/13 02:03:43;;;;;;;12.10;10.27;;;18.10;98.00;;;;;;4240631;27;20262;-77
2022/01/13 02:05:45;;;;;;;13.95;10.38;;;18.00;98.00;;;;;;4231577;28;20210;-77
2022/01/13 02:07:49;;;;;;;10.88;9.75;;;18.10;98.10;;;;;;4231902;28;20218;-77
2022/01/13 02:09:53;;;;;;;14.35;9.65;;;18.10;98.10;;;;;;4228987;28;20263;-77
2022/01/13 02:12:02;;;;;;;11.10;9.15;;;18.00;98.00;;;;;;4231362;28;20619;-77
2022/01/13 02:14:20;;;;;;;14.95;9.98;;;18.10;98.10;;;;;;4231386;28;20209;-77
2022/01/13 02:16:38;;;;;;;14.20;10.35;;;18.00;97.90;;;;;;4231988;27;20237;-77
2022/01/13 02:18:40;;;;;;;13.10;9.90;;;18.00;98.00;;;;;;4239270;27;20225;-77
2022/01/13 02:20:46;;;;;;;12.30;9.27;;;18.10;98.10;;;;;;4240916;27;20628;-77
2022/01/13 02:22:49;;;;;;;12.20;9.40;;;18.00;98.00;;;;;;4231449;28;20662;-77
2022/01/13 02:24:52;;;;;;;15.07;10.35;;;18.00;98.00;;;;;;4244494;27;20218;-77
2022/01/13 02:26:54;;;;;;;13.45;10.35;;;18.00;98.00;;;;;;4244122;27;20202;-77
2022/01/13 02:28:57;;;;;;;13.57;10.02;;;18.00;98.10;;;;;;4234397;27;20218;-77
2022/01/13 02:31:00;;;;;;;12.88;10.27;;;17.90;98.00;;;;;;4247071;27;20248;-77
2022/01/13 02:33:02;;;;;;;12.13;9.95;;;17.90;98.00;;;;;;4247197;27;20577;-77
2022/01/13 02:35:05;;;;;;;13.52;9.75;;;18.00;98.10;;;;;;4246852;27;20209;-77
2022/01/13 02:37:09;;;;;;;13.25;10.00;;;17.90;98.10;;;;;;4244578;27;20237;-78
2022/01/13 02:39:11;;;;;;;13.93;10.38;;;18.00;98.20;;;;;;4231013;28;20218;-77
2022/01/13 02:41:13;;;;;;;13.13;9.50;;;18.00;98.00;;;;;;4245058;27;20220;-78
2022/01/13 02:43:16;;;;;;;13.43;9.95;;;17.90;98.00;;;;;;4241892;27;20210;-77
2022/01/13 02:45:21;;;;;;;12.52;10.18;;;17.90;98.00;;;;;;4237144;27;20614;-77
2022/01/13 02:47:36;;;;;;;13.63;9.95;;;17.90;98.00;;;;;;4238835;27;20209;-78
2022/01/13 02:49:38;;;;;;;14.15;9.88;;;17.90;97.90;;;;;;4230849;28;20217;-77
2022/01/13 02:51:42;;;;;;;13.25;9.98;;;17.90;97.90;;;;;;4233400;27;20213;-77
2022/01/13 02:53:46;;;;;;;12.68;9.20;;;17.90;97.90;;;;;;4229542;28;20221;-77
2022/01/13 02:55:48;;;;;;;13.07;9.93;;;17.90;98.00;;;;;;4228782;28;20726;-77
2022/01/13 02:57:50;;;;;;;11.68;9.23;;;17.90;97.90;;;;;;4230596;28;20245;-77
2022/01/13 02:59:53;;;;;;;13.50;10.20;;;17.90;98.00;;;;;;4227037;28;20218;-77
2022/01/13 03:01:55;;;;;;;12.13;9.43;;;17.90;97.90;;;;;;4229581;28;21042;-77
2022/01/13 03:03:59;;;;;;;14.18;9.98;;;17.80;97.90;;;;;;4244446;27;20963;-77
2022/01/13 03:06:06;;;;;;;14.13;11.02;;;17.80;97.90;;;;;;4245949;27;20718;-78
2022/01/13 03:08:09;;;;;;;14.32;9.75;;;17.80;97.90;;;;;;4246068;27;20669;-77
2022/01/13 03:10:13;;;;;;;12.70;9.57;;;17.90;97.90;;;;;;4237964;27;20214;-76
2022/01/13 03:12:16;;;;;;;12.75;9.75;;;17.80;97.90;;;;;;4227764;28;20270;-77
2022/01/13 03:14:18;;;;;;;13.82;9.55;;;17.80;97.90;;;;;;4230414;28;20226;-77
2022/01/13 03:16:24;;;;;;;13.70;9.57;;;17.80;97.90;;;;;;4230234;28;20214;-77
2022/01/13 03:18:26;;;;;;;14.55;9.98;;;17.80;97.80;;;;;;4230106;28;20701;-77
2022/01/13 03:20:28;;;;;;;13.18;9.77;;;17.80;97.80;;;;;;4230217;28;20221;-77
2022/01/13 03:22:31;;;;;;;12.77;10.05;;;17.80;97.90;;;;;;4230608;28;20267;-77
2022/01/13 03:24:33;;;;;;;12.68;9.95;;;17.80;97.90;;;;;;4229175;28;20218;-77
2022/01/13 03:26:41;;;;;;;12.40;9.43;;;17.80;97.90;;;;;;4240653;27;20288;-77
2022/01/13 03:28:52;;;;;;;13.75;9.65;;;17.80;98.00;;;;;;4229650;27;20235;-78
2022/01/13 03:30:54;;;;;;;13.45;10.10;;;17.80;97.90;;;;;;4236567;27;20286;-77
2022/01/13 03:32:56;;;;;;;11.52;9.52;;;17.80;98.00;;;;;;4245501;27;20727;-77
2022/01/13 03:34:59;;;;;;;12.35;9.60;;;17.80;97.90;;;;;;4241929;27;20222;-77
2022/01/13 03:37:01;;;;;;;12.80;9.55;;;17.80;97.80;;;;;;4232486;27;20241;-77
2022/01/13 03:39:05;;;;;;;12.80;9.90;;;17.70;98.20;;;;;;4244742;27;20251;-77
2022/01/13 03:41:07;;;;;;;13.27;9.65;;;17.70;97.90;;;;;;4241894;27;20228;-77
2022/01/13 03:43:11;;;;;;;13.43;9.75;;;17.70;97.90;;;;;;4241241;27;20213;-78
2022/01/13 03:45:13;;;;;;;12.10;9.48;;;17.70;97.90;;;;;;4229785;28;20715;-77
2022/01/13 03:47:16;;;;;;;13.32;9.65;;;17.70;97.80;;;;;;4228893;28;20260;-77
2022/01/13 03:49:20;;;;;;;13.48;9.50;;;17.70;97.80;;;;;;4230359;28;20271;-77
2022/01/13 03:51:22;;;;;;;11.70;9.40;;;17.70;97.80;;;;;;4244263;27;20661;-78
2022/01/13 03:53:58;;;;;;;13.23;9.68;;;17.70;97.90;;;;;;4229198;28;20218;-78
2022/01/13 03:57:06;;;;;;;13.48;9.30;;;17.70;97.90;;;;;;4227420;28;20622;-77
2022/01/13 04:00:07;;;;;;;11.50;8.93;;;17.70;97.90;;;;;;4229032;28;20275;-77
2022/01/13 04:02:11;;;;;;;13.68;9.65;;;17.70;97.80;;;;;;4228136;28;20271;-77
2022/01/13 04:04:13;;;;;;;12.85;9.65;;;17.60;97.80;;;;;;4230839;27;20221;-77
2022/01/13 04:06:48;;;;;;;14.02;10.07;;;17.60;97.80;;;;;;4229958;28;21024;-77
2022/01/13 04:08:51;;;;;;;14.40;9.18;;;17.60;97.90;;;;;;4242757;27;20221;-78
2022/01/13 04:11:16;;;;;;;14.05;9.80;;;17.60;97.80;;;;;;4233639;27;20286;-77
2022/01/13 04:13:43;;;;;;;13.52;10.10;;;17.60;97.80;;;;;;4237043;27;20217;-77
2022/01/13 04:15:47;;;;;;;11.65;8.90;;;17.60;97.80;;;;;;4246274;27;20258;-77
2022/01/13 04:17:49;;;;;;;13.13;9.82;;;17.60;97.80;;;;;;4246363;27;20241;-77
2022/01/13 04:19:52;;;;;;;13.63;9.75;;;17.60;97.80;;;;;;4235894;27;20218;-77
2022/01/13 04:21:55;;;;;;;13.55;9.90;;;17.60;97.80;;;;;;4229328;28;20674;-77
2022/01/13 04:23:57;;;;;;;13.13;9.18;;;17.60;97.80;;;;;;4228603;28;20743;-78
2022/01/13 04:26:00;;;;;;;12.15;9.40;;;17.60;97.70;;;;;;4229533;28;20214;-78
2022/01/13 04:28:03;;;;;;;11.15;9.13;;;17.50;97.80;;;;;;4229258;28;20209;-77
2022/01/13 04:30:32;;;;;;;14.05;9.55;;;17.50;97.70;;;;;;4237462;27;20990;-77
2022/01/13 04:32:36;;;;;;;12.77;9.40;;;17.50;97.70;;;;;;4226561;27;20270;-77
2022/01/13 04:34:38;;;;;;;12.05;8.98;;;17.50;97.70;;;;;;4229360;28;20268;-77
2022/01/13 04:36:41;;;;;;;12.85;9.50;;;17.50;97.70;;;;;;4235016;27;20550;-77
2022/01/13 04:38:43;;;;;;;12.55;9.02;;;17.60;97.70;;;;;;4242456;27;20245;-77
2022/01/13 04:40:55;;;;;;;11.75;9.18;;;17.50;97.70;;;;;;4234455;27;20259;-77
2022/01/13 04:43:00;;;;;;;12.88;9.68;;;17.50;97.70;;;;;;4232280;27;20654;-77
2022/01/13 04:45:03;;;;;;;14.10;10.07;;;17.50;97.60;;;;;;4229029;28;20263;-77
2022/01/13 04:47:07;;;;;;;12.38;9.70;;;17.50;97.70;;;;;;4227261;28;20206;-77
2022/01/13 04:49:11;;;;;;;13.40;8.93;;;17.50;97.60;;;;;;4224139;28;20222;-77
2022/01/13 04:51:14;;;;;;;14.32;9.55;;;17.50;97.70;;;;;;4241951;27;20244;-77
2022/01/13 04:53:16;;;;;;;11.95;8.93;;;17.50;97.70;;;;;;4228069;27;20218;-77
2022/01/13 04:55:24;;;;;;;14.20;9.40;;;17.50;97.70;;;;;;4228942;28;20251;-77
2022/01/13 04:57:26;;;;;;;10.90;8.90;;;17.50;97.70;;;;;;4240703;27;20208;-77
2022/01/13 04:59:29;;;;;;;12.45;8.75;;;17.50;97.70;;;;;;4233617;27;20274;-77
2022/01/13 05:01:31;;;;;;;11.57;8.93;;;17.50;97.70;;;;;;4229093;28;20218;-77
2022/01/13 05:03:33;;;;;;;14.52;9.60;;;17.50;97.70;;;;;;4228848;28;20666;-77
2022/01/13 05:05:37;;;;;;;12.50;9.27;;;17.40;97.60;;;;;;4228664;28;20263;-78
2022/01/13 05:07:39;;;;;;;13.63;8.77;;;17.50;97.70;;;;;;4226535;27;20226;-77
2022/01/13 05:09:42;;;;;;;13.98;10.32;;;17.40;97.60;;;;;;4225545;28;20306;-77
2022/01/13 05:11:44;;;;;;;12.95;9.68;;;17.40;97.60;;;;;;4226269;28;20217;-77
2022/01/13 05:13:47;;;;;;;12.63;9.48;;;17.40;97.60;;;;;;4229829;28;20218;-77
2022/01/13 05:15:50;;;;;;;13.88;9.35;;;17.40;97.80;;;;;;4229666;28;20217;-77
2022/01/13 05:20:16;;;;;;;11.75;9.45;;;17.40;97.60;;;;;;4229779;28;20248;-77
2022/01/13 05:22:19;;;;;;;13.70;9.60;;;17.40;97.50;;;;;;4230075;28;20213;-77
2022/01/13 05:24:22;;;;;;;11.90;9.50;;;17.40;97.60;;;;;;4228191;27;20270;-77
2022/01/13 05:26:24;;;;;;;13.07;9.32;;;17.40;97.60;;;;;;4220827;28;20218;-78
2022/01/13 05:28:29;;;;;;;11.57;9.00;;;17.40;97.60;;;;;;4217675;28;20214;-77
2022/01/13 05:30:34;;;;;;;11.75;9.00;;;17.40;97.70;;;;;;4213137;28;20214;-77
2022/01/13 05:32:37;;;;;;;12.63;9.55;;;17.40;97.60;;;;;;4229371;28;20290;-77
2022/01/13 05:34:39;;;;;;;11.88;8.60;;;17.40;97.60;;;;;;4229847;28;20214;-77
2022/01/13 05:36:41;;;;;;;12.25;9.07;;;17.40;97.60;;;;;;4230003;28;20222;-77
2022/01/13 05:38:45;;;;;;;14.63;9.80;;;17.40;97.60;;;;;;4229652;28;20241;-77
2022/01/13 05:40:48;;;;;;;11.30;9.18;;;17.30;97.60;;;;;;4233594;28;20263;-78
2022/01/13 05:42:51;;;;;;;12.27;9.43;;;17.40;97.60;;;;;;4223035;28;20608;-77
2022/01/13 05:44:55;;;;;;;12.02;9.45;;;17.40;97.60;;;;;;4220368;28;20251;-77
2022/01/13 05:46:58;;;;;;;12.50;9.18;;;17.30;97.60;;;;;;4229440;28;20213;-78
2022/01/13 05:49:00;;;;;;;12.65;9.50;;;17.40;97.60;;;;;;4224215;28;20545;-77
2022/01/13 05:51:02;;;;;;;11.70;8.98;;;17.30;97.50;;;;;;4229900;28;20201;-78
2022/01/13 05:53:05;;;;;;;12.38;9.48;;;17.30;97.90;;;;;;4233802;28;20249;-77
2022/01/13 05:55:11;;;;;;;11.82;9.25;;;17.20;97.80;;;;;;4229729;28;20263;-77
2022/01/13 05:57:13;;;;;;;11.82;8.73;;;17.00;98.20;;;;;;4229883;28;20209;-78
2022/01/13 05:59:16;;;;;;;11.90;9.43;;;17.00;98.20;;;;;;4229872;28;20750;-77
2022/01/13 06:01:18;;;;;;;13.77;9.00;;;17.00;98.00;;;;;;4225579;28;20214;-77
2022/01/13 06:03:20;;;;;;;12.85;9.73;;;17.20;97.80;;;;;;4224724;28;20218;-77
2022/01/13 06:05:23;;;;;;;12.30;9.88;;;17.30;97.70;;;;;;4229505;28;20616;-77
2022/01/13 06:07:25;;;;;;;12.48;9.77;;;17.40;97.70;;;;;;4229216;28;20263;-77
2022/01/13 06:09:28;;;;;;;12.73;10.02;;;17.40;97.50;;;;;;4229493;28;20209;-77
2022/01/13 06:11:38;;;;;;;13.90;10.52;;;17.40;97.50;;;;;;4229651;28;20263;-77
2022/01/13 06:13:40;;;;;;;14.20;10.27;;;17.50;97.60;;;;;;4229117;28;20209;-77
2022/01/13 06:15:42;;;;;;;13.07;9.60;;;17.50;97.60;;;;;;4229903;28;20255;-77
2022/01/13 06:17:46;;;;;;;12.85;10.38;;;17.50;97.60;;;;;;4229278;28;20218;-77
2022/01/13 06:19:48;;;;;;;14.85;10.95;;;17.60;97.70;;;;;;4224924;28;20299;-77
2022/01/13 06:21:51;;;;;;;13.55;10.68;;;17.60;97.70;;;;;;4228625;28;20226;-77
2022/01/13 06:23:53;;;;;;;14.00;10.23;;;17.50;97.80;;;;;;4226036;28;20222;-77
2022/01/13 06:25:57;;;;;;;13.65;10.45;;;17.60;98.00;;;;;;4229555;28;20270;-78
2022/01/13 06:28:01;;;;;;;12.35;9.95;;;17.60;98.00;;;;;;4229286;28;20666;-77
2022/01/13 06:30:04;;;;;;;13.68;10.70;;;17.60;97.90;;;;;;4228954;28;20256;-77
2022/01/13 06:32:07;;;;;;;12.60;9.80;;;17.60;98.10;;;;;;4228815;28;20643;-77
2022/01/13 06:34:10;;;;;;;14.38;10.30;;;17.60;98.20;;;;;;4229303;28;20213;-77
2022/01/13 06:36:12;;;;;;;12.75;10.02;;;17.60;98.00;;;;;;4218962;28;20218;-77
2022/01/13 06:38:14;;;;;;;11.95;9.63;;;17.70;98.10;;;;;;4226851;28;20214;-77
2022/01/13 06:40:17;;;;;;;12.52;9.00;;;17.60;98.20;;;;;;4227859;28;20213;-77
2022/01/13 06:42:19;;;;;;;12.52;9.70;;;17.60;98.40;;;;;;4221011;28;20272;-77
2022/01/13 06:44:23;;;;;;;13.88;10.00;;;17.60;98.40;;;;;;4226721;28;20263;-77
2022/01/13 06:46:25;;;;;;;14.05;11.07;;;17.70;98.40;;;;;;4229272;28;20210;-77
2022/01/13 06:48:28;;;;;;;14.43;10.55;;;17.70;98.30;;;;;;4231381;28;20214;-78
2022/01/13 06:50:31;;;;;;;11.88;9.23;;;17.60;98.40;;;;;;4231207;28;20730;-77
2022/01/13 06:52:33;;;;;;;14.20;10.88;;;17.70;98.60;;;;;;4214447;28;20244;-78
2022/01/13 06:54:35;;;;;;;12.85;8.95;;;17.70;98.50;;;;;;4231682;28;20346;-77
2022/01/13 06:56:38;;;;;;;10.90;8.63;;;17.70;98.70;;;;;;4230742;28;20670;-78
2022/01/13 06:58:44;;;;;;;13.68;10.38;;;17.70;98.70;;;;;;4231145;28;20221;-77
2022/01/13 07:00:47;;;;;;;11.55;8.82;;;17.70;98.70;;;;;;4230561;27;20259;-77
2022/01/13 07:02:51;;;;;;;12.07;9.32;;;17.70;98.80;;;;;;4226455;28;20267;-77
2022/01/13 07:04:54;;;;;;;12.48;9.30;;;17.80;98.90;;;;;;4232160;28;20262;-77
2022/01/13 07:06:57;;;;;;;13.00;10.00;;;17.80;99.00;;;;;;4231551;28;20206;-77
2022/01/13 07:08:59;;;;;;;11.80;8.90;;;17.80;98.80;;;;;;4231658;28;20251;-78
2022/01/13 07:11:03;;;;;;;11.50;8.85;;;17.80;99.00;;;;;;4231458;28;20259;-77
2022/01/13 07:13:06;;;;;;;11.80;9.38;;;17.80;98.80;;;;;;4231872;28;20723;-77
2022/01/13 07:15:10;;;;;;;10.60;9.07;;;17.80;99.00;;;;;;4231075;28;20209;-77
2022/01/13 07:17:14;;;;;;;12.25;9.23;;;17.80;99.50;;;;;;4231471;28;20271;-77
2022/01/13 07:19:17;;;;;;;11.65;9.23;;;17.80;99.10;;;;;;4231962;27;20228;-78
2022/01/13 07:21:21;;;;;;;11.43;9.38;;;17.80;99.20;;;;;;4221245;28;20603;-77
2022/01/13 07:23:23;;;;;;;13.52;10.15;;;17.80;99.10;;;;;;4231651;28;20210;-77
2022/01/13 07:25:26;;;;;;;13.15;10.10;;;17.80;99.00;;;;;;4231664;28;20635;-77
2022/01/13 07:27:28;;;;;;;10.95;9.25;;;17.80;99.10;;;;;;4231231;28;20674;-77
2022/01/13 07:29:31;;;;;;;12.43;9.93;;;17.80;99.10;;;;;;4231653;28;20213;-77
2022/01/13 07:31:33;;;;;;;11.52;10.18;;;17.80;99.00;;;;;;4231099;28;20278;-77
2022/01/13 07:33:37;;;;;;;11.95;9.90;;;17.90;99.20;;;;;;4231800;28;20209;-77
2022/01/13 07:35:39;;;;;;;11.85;9.80;;;17.90;99.10;;;;;;4230950;27;20217;-77
2022/01/13 07:37:42;;;;;;;11.68;9.40;;;17.90;99.10;;;;;;4229012;28;20300;-77
2022/01/13 07:39:45;;;;;;;11.57;9.43;;;17.90;99.30;;;;;;4233847;27;20282;-77
2022/01/13 07:41:47;;;;;;;10.35;9.25;;;17.90;99.40;;;;;;4235559;27;20218;-77
2022/01/13 07:43:54;;;;;;;11.27;9.63;;;17.90;99.20;;;;;;4217848;28;20222;-77
2022/01/13 07:45:56;;;;;;;10.52;9.30;;;17.90;99.30;;;;;;4226248;28;20337;-77
2022/01/13 07:47:59;;;;;;;11.10;9.70;;;17.90;99.30;;;;;;4230738;28;20618;-78
2022/01/13 07:50:02;;;;;;;12.13;9.07;;;17.90;99.40;;;;;;4231194;28;20210;-78
2022/01/13 07:52:05;;;;;;;13.25;10.43;;;17.90;99.40;;;;;;4228156;28;20202;-77
2022/01/13 07:54:08;;;;;;;14.93;10.88;;;17.80;98.60;;;;;;4229026;28;20218;-77
2022/01/13 07:56:10;;;;;;;20.42;15.77;;;17.90;98.50;;;;;;4228860;27;20286;-77
2022/01/13 07:58:12;;;;;;;17.25;13.75;;;17.80;97.10;;;;;;4218364;28;20213;-78
2022/01/13 08:00:16;;;;;;;17.30;12.50;;;17.60;97.40;;;;;;4223627;28;20241;-77
2022/01/13 08:02:18;;;;;;;12.85;10.35;;;18.00;97.00;;;;;;4227489;28;20213;-77
2022/01/13 08:04:21;;;;;;;15.13;10.20;;;18.40;96.50;;;;;;4230470;27;20259;-80
2022/01/13 08:06:25;;;;;;;16.50;10.85;;;18.80;96.50;;;;;;4223382;28;20552;-79
2022/01/13 08:08:27;;;;;;;12.13;9.13;;;19.10;96.50;;;;;;4224420;27;20213;-79
2022/01/13 08:10:30;;;;;;;10.63;9.20;;;19.20;96.20;;;;;;4232990;27;20206;-77
2022/01/13 08:12:32;;;;;;;11.93;9.18;;;19.50;96.20;;;;;;4227202;28;20267;-78
2022/01/13 08:14:34;;;;;;;13.65;9.63;;;19.70;95.70;;;;;;4225957;28;20217;-77
2022/01/13 08:16:41;;;;;;;13.25;8.90;;;19.80;95.90;;;;;;4220246;28;20725;-78
2022/01/13 08:21:04;;;;;;;14.68;9.20;;;19.90;96.10;;;;;;4225258;27;20622;-77
2022/01/13 08:23:09;;;;;;;12.98;9.77;;;20.00;95.40;;;;;;4221157;27;20646;-77
2022/01/13 08:25:11;;;;;;;12.60;8.77;;;20.30;95.10;;;;;;4217881;28;20210;-78
2022/01/13 08:27:14;;;;;;;9.93;8.48;;;20.40;95.40;;;;;;4217328;28;20279;-76
2022/01/13 08:29:16;;;;;;;10.15;8.85;;;20.40;95.60;;;;;;4227553;28;20286;-78
2022/01/13 08:31:18;;;;;;;10.88;8.70;;;20.50;95.60;;;;;;4230799;27;20221;-77
2022/01/13 08:33:22;;;;;;;12.15;8.13;;;20.60;95.50;;;;;;4232176;27;20221;-79
2022/01/13 08:35:25;;;;;;;12.23;9.18;;;20.60;95.70;;;;;;4225422;28;20318;-77
2022/01/13 08:37:27;;;;;;;10.23;9.02;;;20.50;95.80;;;;;;4225293;27;20214;-78
2022/01/13 08:39:32;;;;;;;10.07;8.63;;;20.40;95.90;;;;;;4222250;28;20306;-76
2022/01/13 08:41:34;;;;;;;12.43;10.45;;;20.60;95.20;;;;;;4220865;28;20214;-77
2022/01/13 08:43:36;;;;;;;13.80;8.80;;;20.60;94.40;;;;;;4225470;27;20210;-77
2022/01/13 08:45:39;;;;;;;17.55;9.85;;;20.80;94.50;;;;;;4221965;27;20827;-79
2022/01/13 08:47:41;;;;;;;14.38;9.57;;;21.00;94.90;;;;;;4224196;28;20229;-77
2022/01/13 08:49:44;;;;;;;16.65;10.02;;;20.90;94.50;;;;;;4222377;27;20222;-76
2022/01/13 08:51:46;;;;;;;9.80;8.20;;;21.00;94.70;;;;;;4227795;27;20214;-76
2022/01/13 08:53:50;;;;;;;11.18;9.02;;;21.00;95.10;;;;;;4224698;28;20210;-77
2022/01/13 08:55:55;;;;;;;11.15;8.05;;;20.90;95.40;;;;;;4228661;28;20214;-78
2022/01/13 08:57:57;;;;;;;12.68;8.70;;;20.90;95.80;;;;;;4228962;28;20213;-75
2022/01/13 09:00:00;;;;;;;9.20;7.97;;;21.00;95.40;;;;;;4223849;27;20263;-76
2022/01/13 09:02:02;;;;;;;10.70;8.75;;;21.10;95.20;;;;;;4221516;28;20251;-78
2022/01/13 09:04:05;;;;;;;11.25;8.15;;;21.10;95.40;;;;;;4220997;27;20266;-78
2022/01/13 09:06:07;;;;;;;12.30;9.88;;;21.00;95.30;;;;;;4231876;27;20209;-78
2022/01/13 09:08:11;;;;;;;10.82;9.05;;;20.90;94.90;;;;;;4219660;27;20225;-78
2022/01/13 09:10:15;;;;;;;9.68;8.20;;;21.00;95.00;;;;;;4223388;27;20209;-78
2022/01/13 09:12:18;;;;;;;12.85;8.98;;;21.00;95.00;;;;;;4224918;27;20213;-76
2022/01/13 09:14:25;;;;;;;11.88;9.32;;;21.20;94.90;;;;;;4219801;28;20708;-77
2022/01/13 09:16:40;;;;;;;11.70;8.40;;;21.20;94.50;;;;;;4224406;28;20263;-76
2022/01/13 09:19:07;;;;;;;9.93;8.65;;;21.50;94.40;;;;;;4225210;28;20673;-76
2022/01/13 09:21:10;;;;;;;9.43;8.38;;;21.50;95.00;;;;;;4217969;28;20233;-79
2022/01/13 09:23:12;;;;;;;9.45;7.82;;;21.10;95.40;;;;;;4226125;28;20247;-79
2022/01/13 09:25:15;;;;;;;9.82;8.38;;;20.90;95.90;;;;;;4221768;28;20230;-77
2022/01/13 09:27:19;;;;;;;10.88;9.15;;;20.80;96.10;;;;;;4228883;27;20214;-79
2022/01/13 09:29:21;;;;;;;11.43;7.82;;;20.70;96.10;;;;;;4223670;28;20218;-77
2022/01/13 09:31:23;;;;;;;13.35;8.80;;;20.60;96.40;;;;;;4222127;28;20286;-77
2022/01/13 09:33:26;;;;;;;10.52;8.45;;;20.60;96.30;;;;;;4218321;28;20214;-74
2022/01/13 09:35:28;;;;;;;9.80;8.38;;;20.60;96.50;;;;;;4225914;28;20213;-75
2022/01/13 09:37:31;;;;;;;9.48;8.50;;;20.60;96.60;;;;;;4217799;28;20596;-74
2022/01/13 09:39:33;;;;;;;8.80;7.80;;;20.60;96.60;;;;;;4223872;28;20585;-76
2022/01/13 09:41:37;;;;;;;9.63;8.40;;;20.60;96.60;;;;;;4221719;28;20291;-77
2022/01/13 09:43:44;;;;;;;10.85;8.50;;;20.60;96.80;;;;;;4217755;28;20310;-77
2022/01/13 09:45:48;;;;;;;9.80;7.90;;;20.70;96.90;;;;;;4220435;28;20210;-76
2022/01/13 09:47:51;;;;;;;9.63;8.27;;;20.60;97.20;;;;;;4223838;28;20258;-78
2022/01/13 09:49:54;;;;;;;10.55;8.98;;;20.70;97.00;;;;;;4218803;28;20255;-79
2022/01/13 09:51:57;;;;;;;13.15;9.13;;;20.70;97.00;;;;;;4222074;28;20267;-77
2022/01/13 09:53:59;;;;;;;12.45;9.20;;;20.70;96.90;;;;;;4225595;28;20615;-77
2022/01/13 09:56:02;;;;;;;11.57;8.80;;;20.60;96.10;;;;;;4217182;28;20228;-77
2022/01/13 09:58:10;;;;;;;11.18;8.32;;;20.60;96.20;;;;;;4220816;28;20259;-78
2022/01/13 10:00:16;;;;;;;9.13;8.23;;;20.70;97.00;;;;;;4223200;28;20259;-79
2022/01/13 10:02:19;;;;;;;11.57;8.95;;;20.70;97.70;;;;;;4221378;28;20275;-78
2022/01/13 10:04:21;;;;;;;10.90;9.63;;;20.80;96.50;;;;;;4224624;28;20217;-79
2022/01/13 10:06:23;;;;;;;11.00;8.80;;;20.80;96.10;;;;;;4227481;28;20222;-76
2022/01/13 10:08:42;;;;;;;13.07;8.98;;;20.70;96.20;;;;;;4220697;28;20264;-76
2022/01/13 10:10:44;;;;;;;9.57;8.57;;;20.80;97.30;;;;;;4227745;28;20278;-75
2022/01/13 10:12:49;;;;;;;11.25;8.63;;;20.90;97.00;;;;;;4225711;28;20209;-75
2022/01/13 10:17:20;;;;;;;10.80;8.40;;;20.80;97.30;;;;;;4224499;28;20199;-76
2022/01/13 10:19:27;;;;;;;9.93;8.88;;;20.90;97.40;;;;;;4224335;28;20270;-77
2022/01/13 10:21:30;;;;;;;9.88;8.38;;;20.90;97.30;;;;;;4224050;28;20279;-77
2022/01/13 10:23:32;;;;;;;8.93;8.02;;;20.90;97.30;;;;;;4226963;28;20214;-77
2022/01/13 10:25:37;;;;;;;10.32;8.30;;;20.90;97.40;;;;;;4221563;28;20214;-75
2022/01/13 10:27:39;;;;;;;10.05;9.05;;;21.00;97.50;;;;;;4221016;28;20236;-75
2022/01/13 10:29:46;;;;;;;11.00;8.75;;;21.00;97.30;;;;;;4221145;28;20214;-74
2022/01/13 10:31:51;;;;;;;11.95;8.10;;;20.90;97.20;;;;;;4226249;28;20266;-75
2022/01/13 10:33:55;;;;;;;9.57;8.60;;;21.00;97.50;;;;;;4227926;28;20214;-77
2022/01/13 10:36:08;;;;;;;9.35;8.02;;;20.90;97.70;;;;;;4229293;28;20213;-75
2022/01/13 10:38:10;;;;;;;9.65;8.05;;;21.00;97.40;;;;;;4230080;27;20209;-76
2022/01/13 10:40:15;;;;;;;10.20;8.40;;;21.00;97.30;;;;;;4221085;28;20666;-79
2022/01/13 10:42:44;;;;;;;8.70;7.85;;;21.00;97.50;;;;;;4224101;27;20262;-76
2022/01/13 10:44:52;;;;;;;10.57;7.72;;;21.10;97.40;;;;;;4228843;28;20210;-78
2022/01/13 10:46:59;;;;;;;9.73;8.40;;;21.00;97.40;;;;;;4228136;28;20217;-78
2022/01/13 10:49:10;;;;;;;10.13;8.00;;;21.10;98.00;;;;;;4223636;27;20239;-75
2022/01/13 10:51:13;;;;;;;13.63;8.10;;;21.10;97.70;;;;;;4223158;28;20217;-79
2022/01/13 10:53:20;;;;;;;10.40;8.25;;;21.00;97.40;;;;;;4228694;28;20222;-77
2022/01/13 10:55:24;;;;;;;8.75;7.85;;;21.00;97.20;;;;;;4234411;27;20235;-76